createdAt,value
2018-08-30T00:01:45.886Z,17.42
2018-08-30T00:04:14.128Z,17.35
2018-08-30T00:06:42.353Z,17.13
2018-08-30T00:09:10.561Z,17.35
2018-08-30T00:11:38.816Z,17.41
2018-08-30T00:14:07.026Z,17.51
2018-08-30T00:16:35.299Z,17.58
2018-08-30T00:19:03.568Z,17.66
2018-08-30T00:21:31.849Z,17.63
2018-08-30T00:24:00.082Z,17.50
2018-08-30T00:26:28.286Z,17.39
2018-08-30T00:28:56.521Z,17.36
2018-08-30T00:31:24.729Z,17.45
2018-08-30T00:33:53.821Z,17.34
2018-08-30T00:36:22.085Z,17.03
2018-08-30T00:38:50.344Z,17.01
2018-08-30T00:41:18.665Z,17.11
2018-08-30T00:43:46.814Z,16.87
2018-08-30T00:46:15.057Z,16.90
2018-08-30T00:48:43.277Z,16.84
2018-08-30T00:51:11.490Z,16.82
2018-08-30T00:53:39.734Z,16.89
2018-08-30T00:56:07.929Z,16.83
2018-08-30T00:58:36.150Z,16.84
2018-08-30T01:01:04.446Z,16.72
2018-08-30T01:03:32.685Z,16.73
2018-08-30T01:06:01.148Z,16.61
2018-08-30T01:08:29.386Z,16.77
2018-08-30T01:10:57.601Z,16.56
2018-08-30T01:13:25.840Z,16.52
2018-08-30T01:15:54.049Z,16.55
2018-08-30T01:18:22.432Z,16.69
2018-08-30T01:20:50.659Z,16.69
2018-08-30T01:23:18.883Z,16.57
2018-08-30T01:25:47.138Z,16.58
2018-08-30T01:28:15.362Z,16.65
2018-08-30T01:30:43.630Z,16.57
2018-08-30T01:33:11.902Z,16.78
2018-08-30T01:35:40.082Z,16.80
2018-08-30T01:38:08.301Z,16.80
2018-08-30T01:40:36.517Z,16.70
2018-08-30T01:43:05.010Z,16.84
2018-08-30T01:45:33.283Z,17.02
2018-08-30T01:48:01.537Z,16.97
2018-08-30T01:50:29.841Z,16.91
2018-08-30T01:52:58.088Z,16.87
2018-08-30T01:55:26.326Z,16.68
2018-08-30T01:57:54.548Z,16.57
2018-08-30T02:00:22.794Z,16.79
2018-08-30T02:02:51.015Z,16.76
2018-08-30T02:05:19.239Z,16.49
2018-08-30T02:07:47.442Z,16.61
2018-08-30T02:10:15.690Z,16.47
2018-08-30T02:12:43.907Z,16.44
2018-08-30T02:15:12.174Z,16.44
2018-08-30T02:17:40.414Z,16.48
2018-08-30T02:20:08.666Z,16.38
2018-08-30T02:22:36.884Z,16.40
2018-08-30T02:25:05.165Z,16.52
2018-08-30T02:27:33.388Z,16.37
2018-08-30T02:30:01.635Z,16.35
2018-08-30T02:32:29.845Z,16.26
2018-08-30T02:34:58.088Z,16.32
2018-08-30T02:37:26.326Z,16.08
2018-08-30T02:39:54.556Z,16.41
2018-08-30T02:42:22.874Z,16.41
2018-08-30T02:44:51.096Z,16.45
2018-08-30T02:47:19.313Z,16.36
2018-08-30T02:49:47.532Z,16.47
2018-08-30T02:52:15.752Z,16.68
2018-08-30T02:54:44.016Z,16.47
2018-08-30T02:57:12.247Z,16.36
2018-08-30T02:59:40.472Z,16.53
2018-08-30T03:02:08.741Z,16.35
2018-08-30T03:04:36.962Z,16.45
2018-08-30T03:07:05.187Z,16.43
2018-08-30T03:09:33.407Z,16.40
2018-08-30T03:12:01.635Z,16.56
2018-08-30T03:14:29.849Z,16.46
2018-08-30T03:16:58.053Z,16.48
2018-08-30T03:19:26.267Z,16.48
2018-08-30T03:21:54.535Z,16.47
2018-08-30T03:24:22.737Z,16.61
2018-08-30T03:26:50.964Z,16.54
2018-08-30T03:29:19.169Z,16.43
2018-08-30T03:31:47.420Z,16.51
2018-08-30T03:34:15.670Z,16.71
2018-08-30T03:36:43.899Z,16.54
2018-08-30T03:39:12.101Z,16.62
2018-08-30T03:41:40.347Z,16.45
2018-08-30T03:44:08.574Z,16.61
2018-08-30T03:46:36.793Z,16.58
2018-08-30T03:49:05.406Z,16.60
2018-08-30T03:51:33.646Z,16.66
2018-08-30T03:54:01.890Z,16.74
2018-08-30T03:56:30.135Z,16.76
2018-08-30T03:58:58.378Z,16.57
2018-08-30T04:01:26.604Z,16.49
2018-08-30T04:03:54.825Z,16.50
2018-08-30T04:06:23.038Z,16.56
2018-08-30T04:08:51.301Z,16.67
2018-08-30T04:11:19.510Z,16.61
2018-08-30T04:13:47.741Z,16.68
2018-08-30T04:16:15.965Z,16.80
2018-08-30T04:18:44.181Z,16.69
2018-08-30T04:21:12.430Z,16.50
2018-08-30T04:23:40.642Z,16.74
2018-08-30T04:26:08.862Z,16.63
2018-08-30T04:28:37.056Z,16.64
2018-08-30T04:31:05.455Z,16.55
2018-08-30T04:33:33.692Z,16.53
2018-08-30T04:36:01.915Z,16.64
2018-08-30T04:38:30.122Z,16.64
2018-08-30T04:40:58.340Z,16.79
2018-08-30T04:43:26.567Z,16.81
2018-08-30T04:45:54.809Z,16.66
2018-08-30T04:48:23.071Z,16.81
2018-08-30T04:50:51.286Z,16.79
2018-08-30T04:53:19.505Z,16.65
2018-08-30T04:55:47.709Z,16.71
2018-08-30T04:58:16.110Z,16.61
2018-08-30T05:00:44.356Z,16.83
2018-08-30T05:03:12.588Z,16.79
2018-08-30T05:05:40.798Z,16.83
2018-08-30T05:08:09.027Z,16.79
2018-08-30T05:10:37.285Z,16.75
2018-08-30T05:13:05.543Z,16.93
2018-08-30T05:15:33.781Z,16.79
2018-08-30T05:18:02.035Z,16.82
2018-08-30T05:20:30.258Z,16.81
2018-08-30T05:22:58.505Z,16.78
2018-08-30T05:25:26.710Z,16.78
2018-08-30T05:27:54.927Z,16.81
2018-08-30T05:30:23.418Z,16.81
2018-08-30T05:32:51.649Z,16.97
2018-08-30T05:35:19.883Z,16.92
2018-08-30T05:37:48.101Z,16.95
2018-08-30T05:40:16.326Z,16.94
2018-08-30T05:42:44.542Z,16.83
2018-08-30T05:45:12.779Z,16.90
2018-08-30T05:47:40.993Z,17.16
2018-08-30T05:50:09.218Z,17.16
2018-08-30T05:52:37.446Z,17.13
2018-08-30T05:55:05.678Z,17.16
2018-08-30T05:57:33.937Z,16.92
2018-08-30T06:00:02.407Z,17.04
2018-08-30T06:02:30.670Z,16.95
2018-08-30T06:04:59.429Z,16.98
2018-08-30T06:07:27.881Z,17.14
2018-08-30T06:09:56.054Z,17.08
2018-08-30T06:12:24.345Z,17.08
2018-08-30T06:14:52.594Z,17.14
2018-08-30T06:17:20.817Z,17.07
2018-08-30T06:19:49.026Z,16.94
2018-08-30T06:22:17.246Z,17.10
2018-08-30T06:24:45.481Z,17.11
2018-08-30T06:27:13.702Z,17.10
2018-08-30T06:29:41.950Z,17.05
2018-08-30T06:32:10.193Z,17.23
2018-08-30T06:34:38.453Z,17.26
2018-08-30T06:37:06.693Z,17.30
2018-08-30T06:39:35.012Z,17.28
2018-08-30T06:42:03.217Z,17.25
2018-08-30T06:44:31.639Z,17.43
2018-08-30T06:46:59.899Z,17.31
2018-08-30T06:49:28.113Z,17.35
2018-08-30T06:51:56.326Z,17.28
2018-08-30T06:54:24.577Z,17.22
2018-08-30T06:56:52.825Z,17.38
2018-08-30T06:59:21.037Z,17.29
2018-08-30T07:01:49.273Z,17.22
2018-08-30T07:04:17.610Z,17.35
2018-08-30T07:06:45.727Z,17.25
2018-08-30T07:09:13.953Z,17.25
2018-08-30T07:11:42.186Z,17.45
2018-08-30T07:14:10.504Z,17.53
2018-08-30T07:16:38.738Z,17.32
2018-08-30T07:19:06.962Z,17.62
2018-08-30T07:21:35.191Z,17.51
2018-08-30T07:24:03.402Z,17.41
2018-08-30T07:26:31.641Z,17.39
2018-08-30T07:28:59.879Z,17.44
2018-08-30T07:31:28.130Z,17.41
2018-08-30T07:33:56.351Z,17.32
2018-08-30T07:36:24.684Z,17.35
2018-08-30T07:38:52.959Z,17.48
2018-08-30T07:41:21.189Z,17.36
2018-08-30T07:43:49.448Z,17.40
2018-08-30T07:46:17.684Z,17.38
2018-08-30T07:48:45.903Z,17.35
2018-08-30T07:51:14.365Z,17.30
2018-08-30T07:53:42.601Z,17.42
2018-08-30T07:56:10.943Z,17.47
2018-08-30T07:58:39.161Z,17.46
2018-08-30T08:01:07.374Z,17.29
2018-08-30T08:03:35.730Z,17.30
2018-08-30T08:06:04.123Z,17.32
2018-08-30T08:08:32.326Z,17.57
2018-08-30T08:11:00.554Z,17.60
2018-08-30T08:13:28.761Z,17.65
2018-08-30T08:15:59.087Z,17.80
2018-08-30T08:18:27.426Z,18.57
2018-08-30T08:20:55.669Z,18.48
2018-08-30T08:23:23.931Z,18.67
2018-08-30T08:25:52.141Z,19.28
2018-08-30T08:28:20.370Z,18.92
2018-08-30T08:30:48.606Z,18.90
2018-08-30T08:33:16.817Z,18.32
2018-08-30T08:35:45.033Z,18.15
2018-08-30T08:38:13.297Z,18.17
2018-08-30T08:40:41.514Z,18.50
2018-08-30T08:43:09.768Z,19.09
2018-08-30T08:45:38.044Z,19.26
2018-08-30T08:48:06.319Z,19.47
2018-08-30T08:50:34.547Z,19.67
2018-08-30T08:53:02.846Z,19.44
2018-08-30T08:55:31.097Z,19.79
2018-08-30T08:57:59.361Z,19.58
2018-08-30T09:00:27.572Z,19.19
2018-08-30T09:02:55.814Z,19.14
2018-08-30T09:05:24.059Z,19.62
2018-08-30T09:07:52.298Z,19.79
2018-08-30T09:10:20.535Z,20.07
2018-08-30T09:12:48.784Z,20.26
2018-08-30T09:15:17.035Z,20.29
2018-08-30T09:17:45.291Z,19.87
2018-08-30T09:20:13.532Z,19.78
2018-08-30T09:22:41.758Z,20.20
2018-08-30T09:25:09.997Z,20.29
2018-08-30T09:27:38.231Z,20.53
2018-08-30T09:30:06.541Z,20.63
2018-08-30T09:32:34.802Z,20.75
2018-08-30T09:35:03.062Z,20.71
2018-08-30T09:37:31.319Z,20.41
2018-08-30T09:39:59.761Z,20.24
2018-08-30T09:42:27.967Z,19.97
2018-08-30T09:44:56.181Z,19.86
2018-08-30T09:47:24.390Z,20.07
2018-08-30T09:49:52.670Z,20.42
2018-08-30T09:52:20.842Z,20.79
2018-08-30T09:54:49.097Z,20.52
2018-08-30T09:57:17.559Z,20.67
2018-08-30T09:59:45.522Z,20.46
2018-08-30T10:02:18.865Z,20.46
2018-08-30T10:04:47.216Z,20.44
2018-08-30T10:07:15.426Z,20.80
2018-08-30T10:09:43.648Z,20.84
2018-08-30T10:12:11.866Z,21.20
2018-08-30T10:14:40.079Z,21.26
2018-08-30T10:17:08.298Z,21.09
2018-08-30T10:19:36.698Z,20.82
2018-08-30T10:22:05.075Z,20.46
2018-08-30T10:24:33.284Z,20.34
2018-08-30T10:27:01.498Z,20.35
2018-08-30T10:29:29.737Z,19.95
2018-08-30T10:31:58.058Z,20.05
2018-08-30T10:34:26.346Z,19.93
2018-08-30T10:36:54.626Z,20.02
2018-08-30T10:39:22.850Z,20.12
2018-08-30T10:41:51.105Z,20.35
2018-08-30T10:44:19.329Z,20.48
2018-08-30T10:46:47.570Z,20.54
2018-08-30T10:49:16.150Z,20.65
2018-08-30T10:51:44.385Z,20.55
2018-08-30T10:54:12.633Z,20.73
2018-08-30T10:56:40.889Z,20.59
2018-08-30T10:59:09.454Z,20.54
2018-08-30T11:01:37.694Z,20.80
2018-08-30T11:04:06.454Z,21.22
2018-08-30T11:06:34.694Z,20.78
2018-08-30T11:09:03.040Z,21.11
2018-08-30T11:11:31.217Z,20.98
2018-08-30T11:13:59.442Z,21.04
2018-08-30T11:16:27.648Z,21.08
2018-08-30T11:18:55.962Z,20.74
2018-08-30T11:21:24.184Z,20.79
2018-08-30T11:23:52.494Z,21.06
2018-08-30T11:26:20.738Z,21.37
2018-08-30T11:28:48.982Z,21.25
2018-08-30T11:31:17.206Z,20.81
2018-08-30T11:33:45.503Z,20.64
2018-08-30T11:36:13.776Z,20.55
2018-08-30T11:38:42.001Z,20.43
2018-08-30T11:41:10.217Z,20.34
2018-08-30T11:43:38.517Z,20.31
2018-08-30T11:46:06.747Z,20.65
2018-08-30T11:48:35.053Z,20.78
2018-08-30T11:51:03.350Z,20.93
2018-08-30T11:53:31.649Z,20.80
2018-08-30T11:55:59.914Z,21.19
2018-08-30T11:58:28.144Z,20.91
2018-08-30T12:00:56.458Z,21.06
2018-08-30T12:03:24.665Z,21.34
2018-08-30T12:05:53.441Z,21.53
2018-08-30T12:08:21.743Z,21.74
2018-08-30T12:10:50.016Z,21.60
2018-08-30T12:13:18.170Z,21.59
2018-08-30T12:15:46.435Z,21.35
2018-08-30T12:18:14.747Z,21.47
2018-08-30T12:20:43.064Z,21.80
2018-08-30T12:23:11.201Z,21.67
2018-08-30T12:25:39.434Z,21.57
2018-08-30T12:28:07.744Z,21.55
2018-08-30T12:30:36.003Z,21.45
2018-08-30T12:33:04.227Z,22.17
2018-08-30T12:35:32.526Z,22.47
2018-08-30T12:38:00.785Z,22.27
2018-08-30T12:40:29.058Z,22.18
2018-08-30T12:42:57.452Z,21.75
2018-08-30T12:45:25.470Z,21.64
2018-08-30T12:47:54.834Z,22.02
2018-08-30T12:50:23.183Z,21.61
2018-08-30T12:52:51.465Z,22.23
2018-08-30T12:55:19.659Z,22.30
2018-08-30T12:57:47.918Z,22.55
2018-08-30T13:00:16.151Z,22.44
2018-08-30T13:02:44.415Z,22.56
2018-08-30T13:05:12.781Z,22.16
2018-08-30T13:07:40.949Z,22.45
2018-08-30T13:10:09.343Z,22.46
2018-08-30T13:12:37.604Z,22.33
2018-08-30T13:15:05.911Z,22.20
2018-08-30T13:17:34.168Z,22.48
2018-08-30T13:20:02.449Z,22.61
2018-08-30T13:22:30.767Z,22.10
2018-08-30T13:24:59.003Z,21.86
2018-08-30T13:27:27.137Z,22.10
2018-08-30T13:29:55.335Z,22.37
2018-08-30T13:32:23.868Z,22.42
2018-08-30T13:34:52.154Z,22.72
2018-08-30T13:37:20.262Z,22.91
2018-08-30T13:39:48.509Z,22.69
2018-08-30T13:42:16.988Z,22.44
2018-08-30T13:44:45.069Z,22.33
2018-08-30T13:47:13.192Z,22.17
2018-08-30T13:49:41.283Z,22.08
2018-08-30T13:52:10.750Z,22.27
2018-08-30T13:54:38.858Z,22.72
2018-08-30T13:57:07.408Z,22.18
2018-08-30T13:59:36.352Z,22.05
2018-08-30T14:02:03.930Z,22.41
2018-08-30T14:04:32.195Z,22.01
2018-08-30T14:07:00.552Z,21.80
2018-08-30T14:09:28.668Z,21.79
2018-08-30T14:11:56.974Z,22.13
2018-08-30T14:14:25.023Z,22.00
2018-08-30T14:16:52.969Z,21.72
2018-08-30T14:19:21.216Z,21.79
2018-08-30T14:21:49.410Z,21.64
2018-08-30T14:24:17.673Z,21.98
2018-08-30T14:26:45.909Z,21.71
2018-08-30T14:29:14.106Z,21.64
2018-08-30T14:31:42.354Z,21.56
2018-08-30T14:34:10.561Z,21.39
2018-08-30T14:36:39.018Z,21.27
2018-08-30T14:39:08.869Z,21.64
2018-08-30T14:41:37.094Z,21.47
2018-08-30T14:44:05.342Z,21.23
2018-08-30T14:46:33.713Z,21.52
2018-08-30T14:49:01.816Z,21.59
2018-08-30T14:51:30.233Z,21.81
2018-08-30T14:53:58.728Z,21.95
2018-08-30T14:56:26.877Z,21.92
2018-08-30T14:58:55.155Z,22.30
2018-08-30T15:01:23.472Z,22.44
2018-08-30T15:03:51.658Z,22.40
2018-08-30T15:06:19.873Z,21.98
2018-08-30T15:08:48.078Z,22.00
2018-08-30T15:11:16.349Z,22.01
2018-08-30T15:13:44.577Z,22.00
2018-08-30T15:16:12.790Z,21.66
2018-08-30T15:18:41.002Z,21.56
2018-08-30T15:21:09.216Z,21.29
2018-08-30T15:23:37.539Z,21.45
2018-08-30T15:26:05.707Z,21.61
2018-08-30T15:28:33.930Z,21.56
2018-08-30T15:31:02.189Z,21.43
2018-08-30T15:33:30.449Z,21.67
2018-08-30T15:35:58.669Z,21.70
2018-08-30T15:38:26.893Z,21.72
2018-08-30T15:40:55.146Z,21.85
2018-08-30T15:43:23.349Z,21.49
2018-08-30T15:45:51.578Z,21.78
2018-08-30T15:48:19.857Z,21.91
2018-08-30T15:50:47.985Z,21.89
2018-08-30T15:53:16.280Z,22.02
2018-08-30T15:55:44.530Z,21.87
2018-08-30T15:58:12.830Z,21.78
2018-08-30T16:00:41.042Z,21.78
2018-08-30T16:03:09.272Z,21.67
2018-08-30T16:05:37.477Z,21.74
2018-08-30T16:08:05.738Z,21.73
2018-08-30T16:10:34.006Z,21.76
2018-08-30T16:13:02.315Z,21.60
2018-08-30T16:15:30.457Z,21.47
2018-08-30T16:17:58.741Z,21.08
2018-08-30T16:20:26.991Z,21.03
2018-08-30T16:23:02.909Z,21.02
2018-08-30T16:25:31.074Z,21.01
2018-08-30T16:32:54.073Z,21.29
2018-08-30T16:35:22.480Z,21.25
2018-08-30T16:37:50.579Z,21.21
2018-08-30T16:40:19.258Z,21.15
2018-08-30T16:42:47.488Z,21.14
2018-08-30T16:45:15.693Z,20.89
2018-08-30T16:47:43.908Z,20.98
2018-08-30T16:50:12.153Z,20.83
2018-08-30T16:52:40.465Z,20.80
2018-08-30T16:55:08.710Z,20.84
2018-08-30T16:57:37.021Z,20.80
2018-08-30T17:00:05.305Z,20.87
2018-08-30T17:02:33.542Z,20.98
2018-08-30T17:05:01.793Z,20.80
2018-08-30T17:07:30.043Z,20.71
2018-08-30T17:09:58.313Z,20.69
2018-08-30T17:12:26.553Z,20.75
2018-08-30T17:14:54.784Z,20.59
2018-08-30T17:17:23.001Z,20.74
2018-08-30T17:19:51.205Z,20.64
2018-08-30T17:22:19.422Z,20.67
2018-08-30T17:24:47.621Z,20.70
2018-08-30T17:27:15.871Z,20.63
2018-08-30T17:29:44.095Z,20.76
2018-08-30T17:32:12.386Z,20.65
2018-08-30T17:34:40.607Z,20.83
2018-08-30T17:37:08.864Z,20.65
2018-08-30T17:39:37.055Z,20.64
2018-08-30T17:42:05.299Z,20.70
2018-08-30T17:44:33.570Z,20.16
2018-08-30T17:47:01.805Z,20.35
2018-08-30T17:49:30.041Z,20.38
2018-08-30T17:51:58.318Z,20.46
2018-08-30T17:54:26.539Z,20.46
2018-08-30T17:56:54.769Z,20.39
2018-08-30T17:59:22.994Z,20.30
2018-08-30T18:01:51.238Z,20.29
2018-08-30T18:04:19.489Z,20.26
2018-08-30T18:06:47.766Z,20.16
2018-08-30T18:09:15.914Z,20.15
2018-08-30T18:11:44.133Z,20.28
2018-08-30T18:14:12.422Z,20.30
2018-08-30T18:16:40.843Z,20.17
2018-08-30T18:19:09.062Z,20.28
2018-08-30T18:21:37.263Z,20.14
2018-08-30T18:24:05.609Z,20.20
2018-08-30T18:26:33.788Z,20.10
2018-08-30T18:29:02.018Z,20.06
2018-08-30T18:31:30.257Z,19.97
2018-08-30T18:33:58.459Z,19.91
2018-08-30T18:36:26.727Z,19.87
2018-08-30T18:38:54.961Z,19.88
2018-08-30T18:41:23.228Z,19.77
2018-08-30T18:43:51.427Z,19.65
2018-08-30T18:46:19.698Z,19.30
2018-08-30T18:48:47.907Z,19.29
2018-08-30T18:51:16.125Z,19.34
2018-08-30T18:53:44.333Z,19.25
2018-08-30T18:56:12.570Z,19.27
2018-08-30T18:58:40.801Z,18.89
2018-08-30T19:01:09.010Z,19.05
2018-08-30T19:03:37.385Z,18.83
2018-08-30T19:06:05.641Z,18.79
2018-08-30T19:08:34.039Z,18.83
2018-08-30T19:11:02.241Z,18.85
2018-08-30T19:13:30.498Z,18.68
2018-08-30T19:16:03.959Z,18.33
2018-08-30T19:18:37.761Z,18.61
2018-08-30T19:21:06.202Z,18.51
2018-08-30T19:23:34.965Z,18.59
2018-08-30T19:26:03.175Z,18.49
2018-08-30T19:28:31.398Z,18.51
2018-08-30T19:30:59.614Z,18.52
2018-08-30T19:33:27.845Z,18.51
2018-08-30T19:36:01.584Z,18.34
2018-08-30T19:38:29.830Z,18.32
2018-08-30T19:41:03.439Z,18.35
2018-08-30T19:43:32.773Z,18.29
2018-08-30T19:46:00.985Z,18.22
2018-08-30T19:48:29.250Z,17.89
2018-08-30T19:51:02.440Z,18.10
2018-08-30T19:53:30.761Z,17.87
2018-08-30T19:55:58.986Z,18.02
2018-08-30T19:58:29.198Z,17.98
2018-08-30T20:00:57.451Z,17.93
2018-08-30T20:03:25.721Z,18.01
2018-08-30T20:05:53.949Z,17.92
2018-08-30T20:08:22.402Z,17.74
2018-08-30T20:10:50.614Z,17.67
2018-08-30T20:13:19.233Z,17.56
2018-08-30T20:15:47.793Z,17.75
2018-08-30T20:18:16.022Z,17.60
2018-08-30T20:20:44.265Z,17.47
2018-08-30T20:23:12.490Z,17.40
2018-08-30T20:25:40.731Z,17.33
2018-08-30T20:28:08.941Z,17.37
2018-08-30T20:30:37.197Z,17.33
2018-08-30T20:33:05.700Z,17.41
2018-08-30T20:35:33.930Z,17.38
2018-08-30T20:38:02.193Z,17.36
2018-08-30T20:40:30.478Z,17.24
2018-08-30T20:42:58.905Z,17.26
2018-08-30T20:45:27.138Z,17.20
2018-08-30T20:47:55.361Z,17.12
2018-08-30T20:50:23.581Z,17.17
2018-08-30T20:52:51.805Z,16.98
2018-08-30T20:55:20.042Z,17.14
2018-08-30T20:57:48.493Z,16.99
2018-08-30T21:00:16.797Z,17.07
2018-08-30T21:02:44.978Z,17.12
2018-08-30T21:05:13.201Z,16.71
2018-08-30T21:07:41.402Z,16.91
2018-08-30T21:10:09.706Z,16.70
2018-08-30T21:12:37.911Z,16.87
2018-08-30T21:15:06.862Z,16.61
2018-08-30T21:17:35.089Z,16.55
2018-08-30T21:20:03.413Z,16.57
2018-08-30T21:22:31.639Z,16.57
2018-08-30T21:24:59.850Z,16.68
2018-08-30T21:27:28.082Z,16.52
2018-08-30T21:29:56.265Z,16.61
2018-08-30T21:32:24.513Z,16.49
2018-08-30T21:34:52.730Z,16.48
2018-08-30T21:37:20.950Z,16.50
2018-08-30T21:39:49.162Z,16.49
2018-08-30T21:42:17.387Z,16.42
2018-08-30T21:44:45.593Z,16.21
2018-08-30T21:47:13.807Z,16.20
2018-08-30T21:49:42.004Z,16.38
2018-08-30T21:52:10.279Z,16.22
2018-08-30T21:54:38.494Z,16.22
2018-08-30T21:57:06.722Z,16.23
2018-08-30T21:59:34.958Z,16.42
2018-08-30T22:02:03.162Z,16.41
2018-08-30T22:04:31.373Z,16.13
2018-08-30T22:06:59.581Z,16.07
2018-08-30T22:09:27.802Z,16.21
2018-08-30T22:11:56.022Z,16.09
2018-08-30T22:14:24.236Z,15.85
2018-08-30T22:16:52.463Z,16.01
2018-08-30T22:19:20.693Z,15.97
2018-08-30T22:21:48.899Z,15.70
2018-08-30T22:24:17.128Z,15.93
2018-08-30T22:26:45.333Z,15.77
2018-08-30T22:29:13.547Z,15.78
2018-08-30T22:31:41.766Z,15.96
2018-08-30T22:34:09.962Z,15.99
2018-08-30T22:36:38.186Z,16.12
2018-08-30T22:39:07.410Z,15.88
2018-08-30T22:41:35.635Z,16.07
2018-08-30T22:44:03.832Z,16.02
2018-08-30T22:46:32.061Z,16.12
2018-08-30T22:49:00.286Z,15.95
2018-08-30T22:51:28.518Z,16.04
2018-08-30T22:53:56.745Z,15.85
2018-08-30T22:56:24.978Z,15.91
2018-08-30T22:58:53.178Z,15.61
2018-08-30T23:01:21.386Z,15.79
2018-08-30T23:03:49.601Z,15.79
2018-08-30T23:06:17.808Z,15.88
2018-08-30T23:08:46.019Z,15.70
2018-08-30T23:11:14.259Z,15.82
2018-08-30T23:13:42.477Z,15.73
2018-08-30T23:16:10.715Z,15.54
2018-08-30T23:18:38.941Z,15.70
2018-08-30T23:21:07.217Z,15.73
2018-08-30T23:23:35.430Z,15.70
2018-08-30T23:26:03.642Z,15.58
2018-08-30T23:28:31.869Z,15.81
2018-08-30T23:31:00.102Z,15.63
2018-08-30T23:33:28.310Z,15.55
2018-08-30T23:35:56.545Z,15.50
2018-08-30T23:38:24.766Z,15.45
2018-08-30T23:40:52.983Z,15.47
2018-08-30T23:43:21.209Z,15.47
2018-08-30T23:45:49.414Z,15.34
2018-08-30T23:48:17.658Z,15.29
2018-08-30T23:50:45.882Z,15.18
2018-08-30T23:53:14.096Z,15.19
2018-08-30T23:55:42.342Z,15.37
2018-08-30T23:58:21.836Z,15.30
